Villa Mugueta, Argentina
Current Conditions -  °F | °C
As of 8:00 PM on Saturday 25 Oct 2014 (Local Time) from SAAR Reporting Station
Clear Clear  
Wind Chill: 79°   Ceiling: Unl
Heat Index: 81°   Visibility: 6mi
Dew Point: 68°   Wind: 7mph
Humidity: 69%   Direction: 70°ENE
Pressure: 29.8"   Gusts: NA
Location:  33.31°S, 61.07°W
Report Text: SAAR 252300Z 07006KT CAVOK 26/20 Q1009
Loading
Personal Weather Stations






























Interactive Weather Map
Tropical Storm Tracking
New forecast layout! Learn more

10-Day Weather Forecast

Advertisements
Track Severe Weather on mobile